Time;durP1;ratioP1;P1;durP2;ratioP2;P2;SDS_P1;SDS_P2;PMS_P1;PMS_P2;Temp;Humidity;BMP_temperature;BMP_pressure;BME280_temperature;BME280_humidity;BME280_pressure;Samples;Min_cycle;Max_cycle;Signal;HPM_P1;HPM_P2
2022/01/30 00:01:56;;;;;;;;;;;;;;;4.96;72.58;100512.81;5110282;28;19965;-68
2022/01/30 00:04:21;;;;;;;;;;;;;;;4.98;72.26;100514.41;5108692;28;19915;-68
2022/01/30 00:06:47;;;;;;;;;;;;;;;4.99;71.09;100520.59;5100745;28;19920;-68
2022/01/30 00:09:21;;;;;;;;;;;;;;;4.99;70.20;100523.25;5092220;27;19970;-68
2022/01/30 00:11:54;;;;;;;;;;;;;;;4.93;70.50;100511.16;5103684;28;19919;-68
2022/01/30 00:14:21;;;;;;;;;;;;;;;4.95;70.00;100516.41;5109516;28;20408;-67
2022/01/30 00:16:55;;;;;;;;;;;;;;;4.91;70.30;100522.84;5111307;28;20365;-67
2022/01/30 00:19:32;;;;;;;;;;;;;;;4.90;69.78;100515.84;5104534;28;19919;-67
2022/01/30 00:22:14;;;;;;;;;;;;;;;4.89;69.79;100509.66;5108915;28;19994;-67
2022/01/30 00:25:00;;;;;;;;;;;;;;;4.91;69.51;100518.41;5087517;28;19916;-67
2022/01/30 00:27:33;;;;;;;;;;;;;;;4.90;69.29;100508.69;5099314;28;19923;-70
2022/01/30 00:29:58;;;;;;;;;;;;;;;4.92;68.90;100500.63;5080296;28;20394;-69
2022/01/30 00:32:24;;;;;;;;;;;;;;;4.93;68.65;100513.81;5111402;28;19916;-71
2022/01/30 00:34:50;;;;;;;;;;;;;;;4.94;68.12;100506.72;5111362;28;19930;-71
2022/01/30 00:37:15;;;;;;;;;;;;;;;4.95;67.97;100517.25;5099628;28;20399;-69
2022/01/30 00:39:41;;;;;;;;;;;;;;;4.99;67.66;100515.28;5106838;28;19915;-70
2022/01/30 00:42:06;;;;;;;;;;;;;;;5.06;67.16;100511.28;5112894;28;19912;-70
2022/01/30 00:44:32;;;;;;;;;;;;;;;5.01;67.09;100500.06;5102827;28;19951;-70
2022/01/30 00:46:58;;;;;;;;;;;;;;;5.02;67.11;100492.00;5101121;28;20013;-67
2022/01/30 00:49:24;;;;;;;;;;;;;;;5.01;66.52;100505.38;5093788;28;19915;-66
2022/01/30 00:51:49;;;;;;;;;;;;;;;5.02;66.13;100491.13;5099991;28;19912;-68
2022/01/30 00:54:15;;;;;;;;;;;;;;;5.07;65.59;100481.09;5101505;28;19916;-67
2022/01/30 00:56:40;;;;;;;;;;;;;;;5.05;66.09;100481.19;5100753;28;19920;-67
2022/01/30 00:59:05;;;;;;;;;;;;;;;5.05;65.95;100482.97;5106301;28;19966;-67
2022/01/30 01:01:32;;;;;;;;;;;;;;;5.05;65.28;100472.34;5104502;28;19918;-70
2022/01/30 01:03:57;;;;;;;;;;;;;;;5.03;64.87;100469.78;5090036;28;19912;-69
2022/01/30 01:06:23;;;;;;;;;;;;;;;5.02;64.97;100468.09;5101648;28;20345;-70
2022/01/30 01:09:02;;;;;;;;;;;;;;;5.05;64.67;100469.69;5100644;28;19995;-70
2022/01/30 01:20:57;;;;;;;;;;;;;;;5.07;64.57;100450.06;5105908;28;19919;-71
2022/01/30 01:25:12;;;;;;;;;;;;;;;5.07;63.52;100399.56;5103245;28;20042;-71
2022/01/30 01:27:37;;;;;;;;;;;;;;;5.09;63.68;100413.56;5100940;28;19937;-71
2022/01/30 01:30:03;;;;;;;;;;;;;;;5.06;63.03;100384.53;5110581;28;19919;-71
2022/01/30 01:32:28;;;;;;;;;;;;;;;5.05;63.03;100382.84;5104024;28;19922;-69
2022/01/30 01:34:53;;;;;;;;;;;;;;;5.02;63.25;100372.41;5100408;28;20429;-70
2022/01/30 01:37:19;;;;;;;;;;;;;;;5.00;62.75;100354.88;5104899;28;19911;-70
2022/01/30 01:39:44;;;;;;;;;;;;;;;5.00;62.77;100374.28;5098508;28;19954;-70
2022/01/30 01:42:10;;;;;;;;;;;;;;;4.96;62.25;100359.50;5109948;28;19911;-67
2022/01/30 01:44:41;;;;;;;;;;;;;;;4.93;62.23;100361.53;5112412;27;19908;-69
2022/01/30 01:47:08;;;;;;;;;;;;;;;4.89;62.59;100360.00;5106501;27;19920;-69
2022/01/30 01:49:34;;;;;;;;;;;;;;;4.87;63.09;100353.94;5108455;27;19968;-69
2022/01/30 01:54:40;;;;;;;;;;;;;;;4.82;62.78;100327.66;5104516;27;19930;-70
2022/01/30 01:57:06;;;;;;;;;;;;;;;4.83;62.79;100329.34;5102441;28;20287;-70
2022/01/30 01:59:31;;;;;;;;;;;;;;;4.78;62.37;100321.69;5108054;28;19923;-70
2022/01/30 02:01:59;;;;;;;;;;;;;;;4.82;62.43;100332.13;5086426;28;19927;-70
2022/01/30 02:04:25;;;;;;;;;;;;;;;4.82;62.51;100335.63;5099676;28;19911;-70
2022/01/30 02:07:00;;;;;;;;;;;;;;;4.80;62.26;100316.28;5103815;27;19926;-69
2022/01/30 02:09:29;;;;;;;;;;;;;;;4.82;61.92;100324.13;5106561;28;19912;-70
2022/01/30 02:11:55;;;;;;;;;;;;;;;4.83;61.84;100309.94;5107207;28;19915;-69
2022/01/30 02:27:42;;;;;;;;;;;;;;;4.95;60.61;100290.50;5099554;28;19924;-69
2022/01/30 02:30:08;;;;;;;;;;;;;;;4.94;61.11;100288.81;5110091;28;19916;-69
2022/01/30 02:32:33;;;;;;;;;;;;;;;4.92;60.99;100294.22;5097989;28;19926;-69
2022/01/30 02:34:59;;;;;;;;;;;;;;;4.92;60.91;100286.25;5077343;28;19916;-69
2022/01/30 02:37:24;;;;;;;;;;;;;;;4.94;60.93;100284.38;5104825;28;19973;-69
2022/01/30 02:39:50;;;;;;;;;;;;;;;5.01;60.72;100284.81;5104704;28;20419;-70
2022/01/30 02:42:20;;;;;;;;;;;;;;;5.01;60.86;100283.00;5099986;27;20273;-71
2022/01/30 02:44:52;;;;;;;;;;;;;;;5.00;60.56;100277.78;5103588;28;20326;-70
2022/01/30 02:52:37;;;;;;;;;;;;;;;4.99;61.12;100260.16;5107198;28;19916;-70
2022/01/30 02:55:03;;;;;;;;;;;;;;;5.02;61.05;100252.81;5102070;28;20402;-69
2022/01/30 02:57:28;;;;;;;;;;;;;;;5.04;60.95;100258.03;5107212;28;20371;-70
2022/01/30 02:59:53;;;;;;;;;;;;;;;5.03;61.34;100251.84;5085167;28;19919;-70
2022/01/30 03:02:18;;;;;;;;;;;;;;;5.06;60.61;100251.66;5106296;28;19918;-70
2022/01/30 03:04:44;;;;;;;;;;;;;;;5.06;61.03;100249.00;5091288;28;19943;-70
2022/01/30 03:07:09;;;;;;;;;;;;;;;5.06;61.21;100243.66;5104765;28;19923;-69
2022/01/30 03:09:35;;;;;;;;;;;;;;;5.03;61.07;100238.56;5102661;28;19918;-68
2022/01/30 03:12:01;;;;;;;;;;;;;;;5.07;61.24;100245.41;5088852;28;19998;-69
2022/01/30 03:14:26;;;;;;;;;;;;;;;5.06;61.25;100240.19;5100249;28;20471;-69
2022/01/30 03:16:51;;;;;;;;;;;;;;;5.04;61.47;100256.22;5104050;28;19926;-69
2022/01/30 03:19:16;;;;;;;;;;;;;;;5.05;61.51;100259.72;5108560;28;19985;-70
2022/01/30 03:21:42;;;;;;;;;;;;;;;5.00;61.65;100257.34;5103801;28;19941;-69
2022/01/30 03:24:07;;;;;;;;;;;;;;;4.97;61.56;100236.34;5103319;28;20131;-69
2022/01/30 03:26:38;;;;;;;;;;;;;;;4.97;61.43;100232.81;5084536;28;19926;-70
2022/01/30 03:29:06;;;;;;;;;;;;;;;4.97;62.17;100244.31;5108437;28;19911;-70
2022/01/30 03:31:32;;;;;;;;;;;;;;;4.96;62.06;100231.94;5099730;28;19916;-69
2022/01/30 03:33:58;;;;;;;;;;;;;;;4.93;62.11;100236.63;5113550;28;20352;-69
2022/01/30 03:36:23;;;;;;;;;;;;;;;4.94;62.31;100231.22;5108647;28;19922;-70
2022/01/30 03:38:48;;;;;;;;;;;;;;;4.90;62.17;100229.69;5100081;28;20003;-68
2022/01/30 03:41:13;;;;;;;;;;;;;;;4.94;62.39;100227.69;5111962;27;19915;-67
2022/01/30 03:43:39;;;;;;;;;;;;;;;4.93;62.33;100205.59;5082144;28;19916;-66
2022/01/30 03:46:05;;;;;;;;;;;;;;;4.92;62.81;100214.50;5108050;28;19926;-66
2022/01/30 03:48:31;;;;;;;;;;;;;;;4.92;62.99;100208.34;5093927;28;19911;-66
2022/01/30 03:50:56;;;;;;;;;;;;;;;4.92;62.76;100203.03;5090336;28;20409;-67
2022/01/30 03:53:21;;;;;;;;;;;;;;;4.94;63.24;100203.78;5110538;28;19955;-67
2022/01/30 03:55:47;;;;;;;;;;;;;;;4.92;62.94;100190.59;5091122;28;19972;-67
2022/01/30 03:58:14;;;;;;;;;;;;;;;4.92;63.12;100187.09;5085746;28;19927;-67
2022/01/30 04:00:40;;;;;;;;;;;;;;;4.91;63.37;100178.28;5078790;28;19915;-67
2022/01/30 04:03:05;;;;;;;;;;;;;;;4.90;63.28;100168.59;5109223;28;19957;-70
2022/01/30 04:05:31;;;;;;;;;;;;;;;4.91;63.77;100178.28;5102244;28;19932;-69
2022/01/30 04:08:00;;;;;;;;;;;;;;;4.91;63.66;100161.47;5110869;27;20010;-67
2022/01/30 04:10:25;;;;;;;;;;;;;;;4.91;63.61;100166.78;5105040;28;20452;-67
2022/01/30 04:12:51;;;;;;;;;;;;;;;4.91;63.96;100161.47;5090375;28;19951;-70
2022/01/30 04:15:16;;;;;;;;;;;;;;;4.88;64.58;100149.25;5106820;28;19912;-70
2022/01/30 04:17:42;;;;;;;;;;;;;;;4.89;64.42;100158.06;5092275;28;19916;-70
2022/01/30 04:20:07;;;;;;;;;;;;;;;4.86;64.73;100140.53;5101367;28;19951;-70
2022/01/30 04:22:33;;;;;;;;;;;;;;;4.89;64.99;100131.50;5106612;27;20043;-69
2022/01/30 04:24:58;;;;;;;;;;;;;;;4.88;65.38;100121.81;5110005;28;19912;-70
2022/01/30 04:27:24;;;;;;;;;;;;;;;4.87;65.93;100120.13;5109414;28;19915;-69
2022/01/30 04:29:49;;;;;;;;;;;;;;;4.86;66.03;100113.94;5084219;28;19968;-70
2022/01/30 04:32:15;;;;;;;;;;;;;;;4.84;66.27;100107.91;5108398;28;19915;-71
2022/01/30 04:34:50;;;;;;;;;;;;;;;4.84;66.04;100129.16;5110970;28;20360;-70
2022/01/30 04:37:24;;;;;;;;;;;;;;;4.77;66.20;100119.06;5091336;28;19946;-69
2022/01/30 04:53:18;;;;;;;;;;;;;;;4.79;65.11;100117.97;5104829;28;19977;-67
2022/01/30 04:58:31;;;;;;;;;;;;;;;4.74;65.42;100125.41;5103260;28;19927;-66
2022/01/30 05:01:13;;;;;;;;;;;;;;;4.72;65.21;100133.50;5103203;27;19911;-66
2022/01/30 05:06:32;;;;;;;;;;;;;;;4.65;65.48;100108.28;5106400;28;19922;-67
2022/01/30 05:08:58;;;;;;;;;;;;;;;4.62;65.52;100115.63;5085941;28;20372;-67
2022/01/30 05:11:23;;;;;;;;;;;;;;;4.63;65.95;100104.03;5087327;28;19930;-67
2022/01/30 05:13:50;;;;;;;;;;;;;;;4.61;65.91;100119.19;5106413;28;19919;-67
2022/01/30 05:16:17;;;;;;;;;;;;;;;4.58;66.11;100119.44;5099523;27;19958;-68
2022/01/30 05:18:42;;;;;;;;;;;;;;;4.60;66.26;100115.72;5091206;28;20469;-67
2022/01/30 05:21:08;;;;;;;;;;;;;;;4.62;66.32;100131.56;5104368;28;19995;-67
2022/01/30 05:23:33;;;;;;;;;;;;;;;4.60;66.31;100128.13;5108805;28;19912;-67
2022/01/30 05:26:03;;;;;;;;;;;;;;;4.60;66.90;100128.13;5082503;28;19916;-67
2022/01/30 05:28:28;;;;;;;;;;;;;;;4.56;67.01;100122.19;5079020;28;19951;-67
2022/01/30 05:30:53;;;;;;;;;;;;;;;4.64;66.64;100121.66;5096022;28;20023;-67
2022/01/30 05:33:19;;;;;;;;;;;;;;;4.59;66.88;100116.66;5107194;28;20044;-69
2022/01/30 05:35:44;;;;;;;;;;;;;;;4.56;67.03;100113.38;5089008;28;19916;-70
2022/01/30 05:38:10;;;;;;;;;;;;;;;4.56;67.28;100108.06;5108122;28;19911;-70
2022/01/30 05:40:35;;;;;;;;;;;;;;;4.54;67.45;100115.25;5106098;28;19916;-70
2022/01/30 05:43:02;;;;;;;;;;;;;;;4.57;67.46;100109.75;5101956;28;20010;-70
2022/01/30 05:45:32;;;;;;;;;;;;;;;4.55;67.58;100101.88;5107410;28;20016;-69
2022/01/30 05:48:19;;;;;;;;;;;;;;;4.53;68.06;100094.97;5102304;28;20060;-69
2022/01/30 05:50:44;;;;;;;;;;;;;;;4.52;68.17;100090.63;5097025;28;19926;-70
2022/01/30 05:53:09;;;;;;;;;;;;;;;4.51;68.55;100097.72;5088882;28;19938;-70
2022/01/30 05:55:35;;;;;;;;;;;;;;;4.51;68.52;100100.41;5100619;27;19994;-70
2022/01/30 05:58:01;;;;;;;;;;;;;;;4.51;68.84;100088.91;5096167;28;19924;-70
2022/01/30 06:00:27;;;;;;;;;;;;;;;4.52;69.11;100080.84;5100474;27;19950;-70
2022/01/30 06:02:52;;;;;;;;;;;;;;;4.54;68.96;100080.75;5110684;27;20000;-70
2022/01/30 06:05:20;;;;;;;;;;;;;;;4.57;68.80;100092.03;5112293;28;20049;-70
2022/01/30 06:07:50;;;;;;;;;;;;;;;4.58;68.58;100083.09;5111369;28;19915;-70
2022/01/30 06:10:15;;;;;;;;;;;;;;;4.65;68.55;100095.00;5104841;27;19917;-70
2022/01/30 06:12:41;;;;;;;;;;;;;;;4.80;68.24;100093.13;5109891;28;19949;-70
2022/01/30 06:15:06;;;;;;;;;;;;;;;4.82;67.99;100106.28;5108997;28;19916;-70
2022/01/30 06:17:32;;;;;;;;;;;;;;;4.86;67.38;100103.31;5102284;27;20383;-70
2022/01/30 06:19:57;;;;;;;;;;;;;;;4.86;66.80;100105.97;5102563;28;19911;-70
2022/01/30 06:22:22;;;;;;;;;;;;;;;4.91;66.46;100089.72;5099760;27;19912;-70
2022/01/30 06:24:47;;;;;;;;;;;;;;;4.97;66.26;100100.81;5107009;28;19912;-69
2022/01/30 06:27:13;;;;;;;;;;;;;;;5.02;65.93;100114.63;5094749;28;19916;-71
2022/01/30 06:29:38;;;;;;;;;;;;;;;5.04;65.74;100118.03;5085075;28;19912;-70
2022/01/30 06:32:04;;;;;;;;;;;;;;;5.07;65.33;100128.47;5086345;28;19919;-70
2022/01/30 06:34:29;;;;;;;;;;;;;;;5.20;64.36;100118.69;5099352;28;19919;-70
2022/01/30 06:36:55;;;;;;;;;;;;;;;5.22;64.27;100126.56;5100842;28;19998;-69
2022/01/30 06:39:20;;;;;;;;;;;;;;;5.33;63.89;100126.66;5099565;28;19994;-70
2022/01/30 06:41:46;;;;;;;;;;;;;;;5.30;63.60;100121.53;5107665;27;19911;-70
2022/01/30 06:44:11;;;;;;;;;;;;;;;5.28;63.88;100113.66;5104989;27;20002;-70
2022/01/30 06:46:36;;;;;;;;;;;;;;;5.32;63.75;100123.13;5092813;28;20092;-70
2022/01/30 06:49:02;;;;;;;;;;;;;;;5.45;63.23;100113.34;5112677;28;19912;-69
2022/01/30 06:51:27;;;;;;;;;;;;;;;5.49;63.23;100125.47;5095483;28;19916;-70
2022/01/30 06:53:52;;;;;;;;;;;;;;;5.46;62.87;100104.41;5099435;28;19916;-69
2022/01/30 06:56:18;;;;;;;;;;;;;;;5.48;63.67;100107.81;5086912;28;20383;-71
2022/01/30 06:58:43;;;;;;;;;;;;;;;5.53;64.09;100105.69;5103348;28;19912;-69
2022/01/30 07:01:10;;;;;;;;;;;;;;;5.62;63.38;100114.81;5101727;28;19977;-69
2022/01/30 07:03:36;;;;;;;;;;;;;;;5.64;63.92;100119.06;5080254;28;19983;-70
2022/01/30 07:06:01;;;;;;;;;;;;;;;5.60;64.32;100116.72;5103794;28;19916;-69
2022/01/30 07:08:26;;;;;;;;;;;;;;;5.64;64.35;100116.41;5104422;28;19926;-70
2022/01/30 07:10:51;;;;;;;;;;;;;;;5.72;64.33;100126.50;5108847;28;19908;-70
2022/01/30 07:13:17;;;;;;;;;;;;;;;5.77;64.54;100114.56;5101716;28;19981;-70
2022/01/30 07:15:42;;;;;;;;;;;;;;;5.90;64.32;100120.75;5105457;28;19938;-70
2022/01/30 07:18:08;;;;;;;;;;;;;;;5.91;64.10;100122.47;5084512;28;20394;-70
2022/01/30 07:20:33;;;;;;;;;;;;;;;5.93;65.03;100114.38;5077724;28;19916;-70
2022/01/30 07:22:59;;;;;;;;;;;;;;;6.02;64.80;100111.03;5103409;28;19911;-68
2022/01/30 07:25:24;;;;;;;;;;;;;;;6.05;64.41;100103.69;5104827;28;20277;-67
2022/01/30 07:27:49;;;;;;;;;;;;;;;6.14;63.73;100110.16;5088489;28;19923;-67
2022/01/30 07:30:15;;;;;;;;;;;;;;;6.14;64.43;100124.31;5097514;28;19934;-66
2022/01/30 07:32:40;;;;;;;;;;;;;;;6.24;64.97;100130.66;5105168;28;19915;-67
2022/01/30 07:35:06;;;;;;;;;;;;;;;6.39;64.82;100123.38;5104257;28;19920;-66
2022/01/30 07:37:33;;;;;;;;;;;;;;;6.52;64.35;100130.31;5088809;28;19919;-66
2022/01/30 07:39:59;;;;;;;;;;;;;;;6.50;65.34;100118.94;5083919;28;19923;-67
2022/01/30 07:42:26;;;;;;;;;;;;;;;6.64;65.09;100123.22;5104648;28;19916;-67
2022/01/30 07:44:52;;;;;;;;;;;;;;;6.77;66.20;100124.88;5099585;28;19923;-67
2022/01/30 07:47:18;;;;;;;;;;;;;;;6.94;66.52;100108.44;5098783;28;19916;-67
2022/01/30 07:49:45;;;;;;;;;;;;;;;6.94;68.87;100097.78;5096381;28;19915;-68
2022/01/30 07:52:10;;;;;;;;;;;;;;;7.05;68.74;100102.28;5105803;28;20008;-67
2022/01/30 07:54:36;;;;;;;;;;;;;;;7.09;67.86;100097.59;5099808;28;19947;-67
2022/01/30 07:57:02;;;;;;;;;;;;;;;7.10;68.21;100083.28;5098294;28;19915;-67
2022/01/30 07:59:27;;;;;;;;;;;;;;;7.14;67.79;100082.91;5101205;28;19918;-68
2022/01/30 08:01:53;;;;;;;;;;;;;;;7.11;67.66;100084.97;5098967;28;19939;-68
2022/01/30 08:04:18;;;;;;;;;;;;;;;7.04;68.32;100074.75;5100342;28;20002;-68
2022/01/30 08:06:46;;;;;;;;;;;;;;;7.12;68.85;100066.19;5100348;28;20034;-68
2022/01/30 08:09:11;;;;;;;;;;;;;;;7.11;68.71;100082.28;5097404;27;20042;-69
2022/01/30 08:11:37;;;;;;;;;;;;;;;7.20;68.74;100070.91;5106096;28;20002;-68
2022/01/30 08:14:03;;;;;;;;;;;;;;;7.23;68.79;100068.88;5102821;28;19934;-68
2022/01/30 08:16:28;;;;;;;;;;;;;;;7.20;69.48;100070.91;5102613;28;20348;-67
2022/01/30 08:18:53;;;;;;;;;;;;;;;7.14;69.56;100068.72;5108895;28;19919;-66
2022/01/30 08:21:19;;;;;;;;;;;;;;;7.30;69.56;100055.91;5101272;27;19915;-70
2022/01/30 08:23:44;;;;;;;;;;;;;;;7.33;69.10;100061.00;5088832;28;20292;-70
2022/01/30 08:26:09;;;;;;;;;;;;;;;7.41;69.17;100047.91;5107150;28;20007;-70
2022/01/30 08:28:35;;;;;;;;;;;;;;;7.51;68.87;100043.53;5107878;28;19942;-70
2022/01/30 08:31:00;;;;;;;;;;;;;;;7.55;68.94;100067.19;5092173;28;19923;-72
2022/01/30 08:33:26;;;;;;;;;;;;;;;7.67;67.95;100060.03;5093200;28;19912;-71
2022/01/30 08:35:51;;;;;;;;;;;;;;;7.71;67.72;100062.31;5103667;28;20440;-71
2022/01/30 08:38:18;;;;;;;;;;;;;;;7.71;67.52;100058.81;5099897;28;19918;-72
2022/01/30 08:40:47;;;;;;;;;;;;;;;7.80;67.85;100052.75;5108935;28;20280;-72
2022/01/30 08:43:13;;;;;;;;;;;;;;;7.95;67.25;100044.31;5109138;28;19972;-72
2022/01/30 08:45:38;;;;;;;;;;;;;;;8.07;67.27;100062.03;5107499;28;19976;-71
2022/01/30 08:48:04;;;;;;;;;;;;;;;8.25;67.05;100049.84;5105420;27;20642;-71
2022/01/30 08:50:29;;;;;;;;;;;;;;;8.23;67.22;100058.97;5105396;28;19920;-71
2022/01/30 08:52:54;;;;;;;;;;;;;;;8.47;66.41;100054.25;5109435;28;20412;-71
2022/01/30 08:55:20;;;;;;;;;;;;;;;8.54;66.47;100047.41;5104224;28;19957;-71
2022/01/30 08:57:45;;;;;;;;;;;;;;;8.72;65.86;100056.56;5088784;28;19941;-72
2022/01/30 09:00:15;;;;;;;;;;;;;;;8.74;64.75;100057.31;5111935;28;19950;-73
2022/01/30 09:02:41;;;;;;;;;;;;;;;8.63;65.27;100076.06;5101248;28;19924;-72
2022/01/30 09:05:07;;;;;;;;;;;;;;;8.72;65.44;100053.91;5107389;28;19911;-71
2022/01/30 09:07:33;;;;;;;;;;;;;;;8.63;65.33;100065.38;5107468;28;20275;-70
2022/01/30 09:09:58;;;;;;;;;;;;;;;8.64;65.03;100056.38;5102738;28;19922;-69
2022/01/30 09:12:24;;;;;;;;;;;;;;;8.74;64.81;100068.00;5084943;28;19951;-71
2022/01/30 09:14:49;;;;;;;;;;;;;;;8.87;61.54;100037.41;5108034;28;19954;-71
2022/01/30 09:17:16;;;;;;;;;;;;;;;8.96;61.06;100041.09;5113005;28;19911;-70
2022/01/30 09:19:42;;;;;;;;;;;;;;;8.85;62.09;100046.53;5115027;28;20520;-71
2022/01/30 09:22:08;;;;;;;;;;;;;;;8.85;61.00;100038.53;5095325;28;19911;-71
2022/01/30 09:24:33;;;;;;;;;;;;;;;8.89;59.46;100045.28;5108912;28;20439;-70
2022/01/30 09:26:59;;;;;;;;;;;;;;;9.08;57.47;100040.06;5095335;28;20038;-68
2022/01/30 09:29:25;;;;;;;;;;;;;;;9.29;57.09;100047.09;5093998;28;19916;-67
2022/01/30 09:31:50;;;;;;;;;;;;;;;9.18;57.11;100024.91;5110710;28;19911;-68
2022/01/30 09:34:15;;;;;;;;;;;;;;;9.23;55.44;100039.56;5101307;28;19943;-68
2022/01/30 09:36:40;;;;;;;;;;;;;;;9.26;54.31;100041.16;5110834;28;19922;-68
2022/01/30 09:39:06;;;;;;;;;;;;;;;9.33;54.42;100021.75;5108961;27;20303;-67
2022/01/30 09:41:32;;;;;;;;;;;;;;;9.53;53.35;100033.38;5094801;28;19908;-68
2022/01/30 09:44:00;;;;;;;;;;;;;;;9.64;52.02;100006.50;5113051;28;19990;-68
2022/01/30 09:46:26;;;;;;;;;;;;;;;9.59;51.06;99990.03;5110676;28;19958;-67
2022/01/30 09:48:52;;;;;;;;;;;;;;;9.89;46.70;100000.66;5095381;28;19931;-66
2022/01/30 09:51:17;;;;;;;;;;;;;;;10.02;46.15;99979.81;5107827;28;20276;-67
2022/01/30 09:53:43;;;;;;;;;;;;;;;9.95;46.42;99964.44;5108214;28;19961;-71
2022/01/30 09:56:08;;;;;;;;;;;;;;;10.02;44.99;99968.22;5106753;28;20368;-69
2022/01/30 09:58:33;;;;;;;;;;;;;;;10.03;44.58;99964.59;5107213;28;19972;-69
2022/01/30 10:00:59;;;;;;;;;;;;;;;10.09;43.92;99983.66;5110723;28;19919;-67
2022/01/30 10:03:26;;;;;;;;;;;;;;;10.08;43.38;99960.53;5109089;28;19998;-67
2022/01/30 10:06:00;;;;;;;;;;;;;;;10.14;42.94;99953.75;5089257;28;19923;-68
2022/01/30 10:08:26;;;;;;;;;;;;;;;10.26;42.81;99948.13;5088733;28;20311;-68
2022/01/30 10:10:59;;;;;;;;;;;;;;;10.28;43.08;99927.38;5112457;28;20001;-71
2022/01/30 10:13:29;;;;;;;;;;;;;;;10.25;43.66;99933.03;5106915;28;19908;-72
2022/01/30 10:15:56;;;;;;;;;;;;;;;10.47;42.67;99913.09;5104514;28;19911;-70
2022/01/30 10:18:22;;;;;;;;;;;;;;;10.48;42.59;99904.09;5103572;28;19912;-70
2022/01/30 10:20:48;;;;;;;;;;;;;;;10.52;42.69;99916.22;5113132;28;19957;-69
2022/01/30 10:23:13;;;;;;;;;;;;;;;10.47;43.83;99913.94;5111060;28;19914;-67
2022/01/30 10:25:52;;;;;;;;;;;;;;;10.46;44.08;99908.75;5090475;28;19958;-68
2022/01/30 10:28:19;;;;;;;;;;;;;;;10.47;44.92;99916.63;5108791;28;19911;-67
2022/01/30 10:30:50;;;;;;;;;;;;;;;10.62;44.35;99920.56;5111087;28;19923;-67
2022/01/30 10:33:17;;;;;;;;;;;;;;;10.65;44.89;99912.25;5095712;28;19912;-71
2022/01/30 10:35:46;;;;;;;;;;;;;;;10.71;44.71;99918.84;5092358;28;19912;-70
2022/01/30 10:38:23;;;;;;;;;;;;;;;10.69;44.36;99920.81;5092947;28;20002;-69
2022/01/30 10:40:55;;;;;;;;;;;;;;;10.59;44.91;99926.22;5092344;28;19908;-71
2022/01/30 10:43:20;;;;;;;;;;;;;;;10.51;45.23;99914.53;5092297;28;19998;-71
2022/01/30 10:45:46;;;;;;;;;;;;;;;10.51;46.23;99910.00;5092163;28;20521;-70
2022/01/30 10:48:11;;;;;;;;;;;;;;;10.53;46.56;99939.34;5078037;28;20036;-70
2022/01/30 10:50:38;;;;;;;;;;;;;;;10.38;47.46;99908.63;5112010;28;19912;-71
2022/01/30 10:53:04;;;;;;;;;;;;;;;10.35;48.13;99938.41;5106345;28;21760;-69
2022/01/30 10:55:37;;;;;;;;;;;;;;;10.35;48.84;99941.06;5107388;28;19920;-71
2022/01/30 10:58:04;;;;;;;;;;;;;;;10.27;48.97;99970.41;5112156;28;19912;-71
2022/01/30 11:00:39;;;;;;;;;;;;;;;10.19;49.36;99984.50;5129721;27;19911;-71
2022/01/30 11:03:05;;;;;;;;;;;;;;;10.30;48.69;99988.88;5126992;27;20005;-71
2022/01/30 11:05:32;;;;;;;;;;;;;;;10.15;48.41;99999.16;5112317;28;20015;-70
2022/01/30 11:07:57;;;;;;;;;;;;;;;9.98;48.83;100015.03;5102468;28;19950;-70
2022/01/30 11:10:25;;;;;;;;;;;;;;;9.85;49.16;100055.50;5076153;28;19962;-69
2022/01/30 11:13:07;;;;;;;;;;;;;;;9.79;49.29;99998.94;5109506;28;19916;-69
2022/01/30 11:15:36;;;;;;;;;;;;;;;9.54;46.81;99975.34;5093012;28;19967;-70
2022/01/30 11:18:05;;;;;;;;;;;;;;;9.50;44.12;99996.19;5111432;28;20249;-69
2022/01/30 11:20:33;;;;;;;;;;;;;;;9.41;43.94;99985.47;5109546;28;20460;-69
2022/01/30 11:23:00;;;;;;;;;;;;;;;9.45;44.42;99994.91;5100361;28;20311;-69
2022/01/30 11:25:27;;;;;;;;;;;;;;;9.25;45.65;100000.16;5088899;28;19960;-69
2022/01/30 11:27:54;;;;;;;;;;;;;;;9.24;46.12;99976.22;5103510;28;19911;-69
2022/01/30 11:30:20;;;;;;;;;;;;;;;9.13;45.67;99960.28;5104814;28;19923;-68
2022/01/30 11:32:45;;;;;;;;;;;;;;;9.04;47.37;99943.22;5106242;28;19912;-68
2022/01/30 11:35:11;;;;;;;;;;;;;;;9.03;47.47;99992.31;5099998;28;19926;-68
2022/01/30 11:37:37;;;;;;;;;;;;;;;9.16;46.54;99970.72;5103281;28;19918;-69
2022/01/30 11:40:13;;;;;;;;;;;;;;;9.09;47.12;99961.50;5111213;27;19999;-68
2022/01/30 11:42:45;;;;;;;;;;;;;;;9.07;47.10;99939.41;5113533;28;19916;-69
2022/01/30 11:45:19;;;;;;;;;;;;;;;9.10;47.33;99961.38;5107045;28;19992;-68
2022/01/30 11:47:49;;;;;;;;;;;;;;;9.19;46.50;99940.97;5104430;27;19920;-68
2022/01/30 11:50:34;;;;;;;;;;;;;;;9.11;46.87;99924.78;5103361;28;19993;-68
2022/01/30 11:52:59;;;;;;;;;;;;;;;9.21;45.89;99955.94;5105222;27;19997;-70
2022/01/30 11:55:37;;;;;;;;;;;;;;;9.10;46.35;99973.91;5102114;27;19981;-68
2022/01/30 11:58:02;;;;;;;;;;;;;;;9.07;46.18;99952.78;5090208;28;19967;-68
2022/01/30 12:00:47;;;;;;;;;;;;;;;9.13;45.65;99941.56;5103716;28;19978;-69
2022/01/30 12:03:22;;;;;;;;;;;;;;;9.32;43.70;99967.53;5091270;28;19912;-69
2022/01/30 12:05:48;;;;;;;;;;;;;;;9.27;44.21;99970.59;5105674;28;19920;-69
2022/01/30 12:08:32;;;;;;;;;;;;;;;9.29;43.23;99972.16;5108828;28;19918;-70
2022/01/30 12:10:57;;;;;;;;;;;;;;;9.27;43.64;99960.75;5108120;28;19919;-70
2022/01/30 12:13:49;;;;;;;;;;;;;;;9.36;44.18;99971.63;5111169;28;20529;-70
2022/01/30 12:16:32;;;;;;;;;;;;;;;9.43;43.49;99978.97;5098030;28;21249;-70
2022/01/30 12:18:58;;;;;;;;;;;;;;;9.52;43.63;99988.88;5105027;28;20303;-70
2022/01/30 12:21:26;;;;;;;;;;;;;;;9.76;42.40;99984.00;5103207;27;19912;-70
2022/01/30 12:23:51;;;;;;;;;;;;;;;9.84;42.09;99994.03;5083167;28;20354;-69
2022/01/30 12:26:19;;;;;;;;;;;;;;;9.87;42.27;99973.16;5105768;27;19916;-69
2022/01/30 12:28:51;;;;;;;;;;;;;;;9.77;42.74;99984.84;5097411;27;19962;-69
2022/01/30 12:31:38;;;;;;;;;;;;;;;9.84;42.83;99981.50;5086346;27;20002;-69
2022/01/30 12:34:08;;;;;;;;;;;;;;;9.88;42.05;99998.97;5096762;28;19948;-69
2022/01/30 12:36:41;;;;;;;;;;;;;;;9.77;42.77;99993.72;5100653;27;19920;-69
2022/01/30 12:39:21;;;;;;;;;;;;;;;9.70;43.15;99983.72;5099288;27;20002;-69
2022/01/30 12:41:47;;;;;;;;;;;;;;;9.75;43.07;99985.00;5075890;28;20434;-69
2022/01/30 12:44:13;;;;;;;;;;;;;;;9.66;42.92;99995.66;5094307;28;19958;-70
2022/01/30 12:46:45;;;;;;;;;;;;;;;9.66;42.99;99987.63;5094031;28;19919;-70
2022/01/30 12:49:21;;;;;;;;;;;;;;;9.74;42.92;99991.31;5093612;28;19919;-70
2022/01/30 12:51:49;;;;;;;;;;;;;;;9.84;42.09;99960.06;5106857;28;19966;-69
2022/01/30 12:54:16;;;;;;;;;;;;;;;10.01;40.59;99988.84;5112534;28;19922;-70
2022/01/30 12:56:41;;;;;;;;;;;;;;;9.98;40.08;99974.88;5102827;28;19916;-70
2022/01/30 12:59:07;;;;;;;;;;;;;;;9.99;40.30;99989.97;5100881;28;19912;-70
2022/01/30 13:01:33;;;;;;;;;;;;;;;10.13;39.63;99977.03;5106429;28;19911;-70
2022/01/30 13:04:06;;;;;;;;;;;;;;;10.12;40.03;99990.59;5111518;28;19964;-70
2022/01/30 13:06:33;;;;;;;;;;;;;;;10.06;40.64;99997.31;5113927;28;19970;-70
2022/01/30 13:08:58;;;;;;;;;;;;;;;10.04;41.03;99998.44;5109886;28;20323;-70
2022/01/30 13:11:24;;;;;;;;;;;;;;;9.94;40.95;100009.13;5093796;28;19912;-70
2022/01/30 13:14:08;;;;;;;;;;;;;;;9.86;40.61;99989.38;5099981;28;19915;-70
2022/01/30 13:16:35;;;;;;;;;;;;;;;10.02;40.05;100005.75;5095872;28;19908;-70
2022/01/30 13:19:01;;;;;;;;;;;;;;;9.91;39.94;99998.69;5090047;28;19911;-70
2022/01/30 13:21:30;;;;;;;;;;;;;;;9.83;40.26;100011.09;5114084;28;19911;-71
2022/01/30 13:23:56;;;;;;;;;;;;;;;9.78;40.42;100008.81;5113660;28;19912;-70
2022/01/30 13:26:31;;;;;;;;;;;;;;;9.74;40.70;99991.31;5114184;28;20387;-70
2022/01/30 13:28:56;;;;;;;;;;;;;;;9.76;40.90;100009.91;5111515;28;19916;-70
2022/01/30 13:31:21;;;;;;;;;;;;;;;9.70;40.73;100038.09;5092177;28;19919;-70
2022/01/30 13:34:05;;;;;;;;;;;;;;;9.69;40.41;100040.91;5110938;28;19918;-70
2022/01/30 13:36:31;;;;;;;;;;;;;;;9.72;40.46;100030.78;5093319;28;20018;-70
2022/01/30 13:38:56;;;;;;;;;;;;;;;9.84;40.50;100036.88;5113458;28;19962;-70
2022/01/30 13:41:29;;;;;;;;;;;;;;;9.74;40.91;100030.66;5099108;28;20333;-70